Time;durP1;ratioP1;P1;durP2;ratioP2;P2;SDS_P1;SDS_P2;PMS_P1;PMS_P2;Temp;Humidity;BMP_temperature;BMP_pressure;BME280_temperature;BME280_humidity;BME280_pressure;Samples;Min_cycle;Max_cycle;Signal;HPM_P1;HPM_P2
2022/01/11 00:02:23;;;;;;;108.35;31.83;;;;;;;;;;8397174;28;20078;-74
2022/01/11 00:06:34;;;;;;;141.65;38.17;;;;;;;;;;8398000;28;20131;-75
2022/01/11 00:10:48;;;;;;;118.75;33.10;;;;;;;;;;8403413;28;20048;-74
2022/01/11 00:14:50;;;;;;;85.78;25.25;;;;;;;;;;8403777;28;20452;-74
2022/01/11 00:18:53;;;;;;;88.50;29.17;;;;;;;;;;8403629;28;20048;-74
2022/01/11 00:27:19;;;;;;;74.38;26.42;;;;;;;;;;8402816;28;20139;-74
2022/01/11 00:31:21;;;;;;;72.07;26.27;;;;;;;;;;8402703;28;20056;-74
2022/01/11 00:35:28;;;;;;;51.85;20.27;;;;;;;;;;8403084;28;20476;-74
2022/01/11 00:39:30;;;;;;;62.03;20.98;;;;;;;;;;8402463;28;20040;-74
2022/01/11 00:43:35;;;;;;;61.58;22.15;;;;;;;;;;8402367;28;20407;-82
2022/01/11 00:47:38;;;;;;;55.92;20.13;;;;;;;;;;8402642;28;20045;-74
2022/01/11 00:51:40;;;;;;;62.10;20.67;;;;;;;;;;8402064;28;20384;-73
2022/01/11 00:55:44;;;;;;;67.88;20.80;;;;;;;;;;8401973;28;20056;-74
2022/01/11 00:59:48;;;;;;;76.78;24.23;;;;;;;;;;8401731;28;20057;-74
2022/01/11 01:03:51;;;;;;;84.25;28.50;;;;;;;;;;8402149;28;20052;-81
2022/01/11 01:07:54;;;;;;;77.70;24.95;;;;;;;;;;8401472;28;20048;-74
2022/01/11 01:11:56;;;;;;;52.38;21.90;;;;;;;;;;8401407;28;20052;-74
2022/01/11 01:16:00;;;;;;;49.85;21.00;;;;;;;;;;8401405;28;20055;-82
2022/01/11 01:20:04;;;;;;;56.67;20.20;;;;;;;;;;8400610;28;20044;-74
2022/01/11 01:24:11;;;;;;;65.63;22.38;;;;;;;;;;8401093;28;20053;-74
2022/01/11 01:28:15;;;;;;;122.72;32.90;;;;;;;;;;8400943;28;20044;-75
2022/01/11 01:32:19;;;;;;;81.63;27.83;;;;;;;;;;8400856;28;20064;-74
2022/01/11 01:36:21;;;;;;;74.13;23.45;;;;;;;;;;8400740;28;20056;-74
2022/01/11 01:40:24;;;;;;;56.03;20.33;;;;;;;;;;8400574;28;20045;-73
2022/01/11 01:44:26;;;;;;;31.08;15.18;;;;;;;;;;8400952;28;20040;-73
2022/01/11 01:48:31;;;;;;;51.17;16.58;;;;;;;;;;8400224;28;20055;-74
2022/01/11 01:52:34;;;;;;;34.13;15.68;;;;;;;;;;8400161;28;20178;-73
2022/01/11 01:56:37;;;;;;;37.72;15.55;;;;;;;;;;8399995;28;20045;-74
2022/01/11 02:00:43;;;;;;;52.22;16.88;;;;;;;;;;8399770;28;20056;-75
2022/01/11 02:04:49;;;;;;;30.02;14.73;;;;;;;;;;8400295;28;20495;-74
2022/01/11 02:08:52;;;;;;;31.05;14.80;;;;;;;;;;8400105;28;20396;-74
2022/01/11 02:12:55;;;;;;;36.88;14.40;;;;;;;;;;8399575;28;20055;-74
2022/01/11 02:17:00;;;;;;;26.08;14.30;;;;;;;;;;8401029;28;20471;-75
2022/01/11 02:21:04;;;;;;;35.00;15.02;;;;;;;;;;8431184;28;20044;-75
2022/01/11 02:25:08;;;;;;;43.90;16.85;;;;;;;;;;8433060;28;20089;-74
2022/01/11 02:29:10;;;;;;;48.60;17.33;;;;;;;;;;8417839;28;20397;-78
2022/01/11 02:33:22;;;;;;;37.95;17.15;;;;;;;;;;8398895;28;20044;-73
2022/01/11 02:37:26;;;;;;;36.05;16.83;;;;;;;;;;8402221;28;20044;-74
2022/01/11 02:41:30;;;;;;;45.28;17.83;;;;;;;;;;8433171;28;20047;-75
2022/01/11 02:45:33;;;;;;;44.03;17.02;;;;;;;;;;8449689;28;20498;-75
2022/01/11 02:49:36;;;;;;;32.35;16.45;;;;;;;;;;8438200;28;20040;-74
2022/01/11 02:53:42;;;;;;;44.88;17.60;;;;;;;;;;8431512;28;20106;-74
2022/01/11 02:57:46;;;;;;;56.42;18.90;;;;;;;;;;8447246;28;20054;-74
2022/01/11 03:01:48;;;;;;;42.53;19.25;;;;;;;;;;8444221;28;20039;-75
2022/01/11 03:05:52;;;;;;;41.92;20.33;;;;;;;;;;8446905;28;20097;-74
2022/01/11 03:10:03;;;;;;;37.97;15.82;;;;;;;;;;8444193;28;20040;-74
2022/01/11 03:14:05;;;;;;;52.15;19.70;;;;;;;;;;8445673;28;20043;-74
2022/01/11 03:18:08;;;;;;;49.88;20.63;;;;;;;;;;8437520;28;20044;-75
2022/01/11 03:22:11;;;;;;;43.80;18.83;;;;;;;;;;8449117;28;20048;-74
2022/01/11 03:26:15;;;;;;;34.35;18.92;;;;;;;;;;8439282;28;20044;-74
2022/01/11 03:30:18;;;;;;;42.15;21.30;;;;;;;;;;8430861;28;20040;-73
2022/01/11 03:34:20;;;;;;;45.33;20.75;;;;;;;;;;8431141;28;20127;-74
2022/01/11 03:38:23;;;;;;;53.53;21.40;;;;;;;;;;8430508;28;20110;-74
2022/01/11 03:42:27;;;;;;;48.78;21.02;;;;;;;;;;8430319;28;20047;-82
2022/01/11 03:46:30;;;;;;;74.35;29.55;;;;;;;;;;8430840;28;20047;-78
2022/01/11 03:50:33;;;;;;;55.65;23.58;;;;;;;;;;8430821;28;20051;-74
2022/01/11 03:54:51;;;;;;;54.85;22.83;;;;;;;;;;8430729;28;20096;-73
2022/01/11 03:58:55;;;;;;;46.38;19.73;;;;;;;;;;8429925;28;20052;-74
2022/01/11 04:02:57;;;;;;;55.83;21.23;;;;;;;;;;8430615;28;20048;-80
2022/01/11 04:07:01;;;;;;;55.33;21.88;;;;;;;;;;8429962;28;20048;-74
2022/01/11 04:11:05;;;;;;;76.80;28.75;;;;;;;;;;8430387;28;20048;-74
2022/01/11 04:15:10;;;;;;;55.92;21.52;;;;;;;;;;8430359;28;20385;-74
2022/01/11 04:19:12;;;;;;;63.00;24.05;;;;;;;;;;8430377;28;20495;-74
2022/01/11 04:23:15;;;;;;;55.35;25.70;;;;;;;;;;8429844;28;20040;-74
2022/01/11 04:27:18;;;;;;;57.17;22.85;;;;;;;;;;8429626;28;20052;-74
2022/01/11 04:31:22;;;;;;;120.97;37.22;;;;;;;;;;8429662;28;20044;-74
2022/01/11 04:35:24;;;;;;;95.72;35.08;;;;;;;;;;8429579;28;20130;-74
2022/01/11 04:39:27;;;;;;;102.95;34.00;;;;;;;;;;8430050;28;20479;-74
2022/01/11 04:43:30;;;;;;;120.18;38.60;;;;;;;;;;8430017;28;20126;-74
2022/01/11 04:47:34;;;;;;;73.07;27.33;;;;;;;;;;8429825;28;20207;-74
2022/01/11 04:51:37;;;;;;;64.45;26.58;;;;;;;;;;8429428;28;20051;-74
2022/01/11 04:55:39;;;;;;;60.42;20.58;;;;;;;;;;8436072;28;20044;-74
2022/01/11 04:59:42;;;;;;;51.80;21.08;;;;;;;;;;8435385;28;20493;-73
2022/01/11 05:03:46;;;;;;;64.07;24.15;;;;;;;;;;8410643;28;20046;-74
2022/01/11 05:07:49;;;;;;;73.53;26.48;;;;;;;;;;8404181;28;20127;-75
2022/01/11 05:11:52;;;;;;;56.25;24.73;;;;;;;;;;8435161;28;20128;-74
2022/01/11 05:15:54;;;;;;;60.72;23.65;;;;;;;;;;8426923;28;20044;-74
2022/01/11 05:19:58;;;;;;;62.63;26.08;;;;;;;;;;8405611;28;20056;-74
2022/01/11 05:24:01;;;;;;;54.75;22.83;;;;;;;;;;8434550;28;20079;-74
2022/01/11 05:28:04;;;;;;;52.13;21.63;;;;;;;;;;8434466;28;20048;-74
2022/01/11 05:32:07;;;;;;;60.17;22.77;;;;;;;;;;8434423;28;20503;-74
2022/01/11 05:36:11;;;;;;;67.28;27.52;;;;;;;;;;8434278;28;20502;-74
2022/01/11 05:40:15;;;;;;;112.53;34.25;;;;;;;;;;8410520;28;20510;-75
2022/01/11 05:44:18;;;;;;;69.97;26.50;;;;;;;;;;8400490;28;20052;-74
2022/01/11 05:48:21;;;;;;;69.95;26.25;;;;;;;;;;8421792;28;20048;-82
2022/01/11 05:52:25;;;;;;;67.97;24.17;;;;;;;;;;8434220;28;20044;-74
2022/01/11 05:56:28;;;;;;;65.85;25.08;;;;;;;;;;8433618;28;20040;-74
2022/01/11 06:00:31;;;;;;;77.78;26.63;;;;;;;;;;8405160;28;20423;-75
2022/01/11 06:04:33;;;;;;;68.22;21.83;;;;;;;;;;8423890;28;20407;-74
2022/01/11 06:08:37;;;;;;;67.35;24.65;;;;;;;;;;8399706;28;20049;-74
2022/01/11 06:12:40;;;;;;;68.65;23.05;;;;;;;;;;8429806;28;20093;-74
2022/01/11 06:16:43;;;;;;;76.88;27.75;;;;;;;;;;8433477;28;20392;-75
2022/01/11 06:20:45;;;;;;;87.28;29.08;;;;;;;;;;8433653;28;20548;-74
2022/01/11 06:24:50;;;;;;;64.80;25.30;;;;;;;;;;8433172;28;20040;-74
2022/01/11 06:28:52;;;;;;;83.82;29.02;;;;;;;;;;8422231;28;20052;-75
2022/01/11 06:32:56;;;;;;;73.22;22.15;;;;;;;;;;8426501;28;20538;-74
2022/01/11 06:37:00;;;;;;;59.47;21.17;;;;;;;;;;8399390;28;20131;-74
2022/01/11 06:41:04;;;;;;;63.40;24.25;;;;;;;;;;8441905;28;20048;-75
2022/01/11 06:45:08;;;;;;;80.65;29.35;;;;;;;;;;8442593;28;20055;-76
2022/01/11 06:49:11;;;;;;;78.18;29.38;;;;;;;;;;8440747;28;20067;-80
2022/01/11 06:53:15;;;;;;;68.15;24.08;;;;;;;;;;8444549;28;20101;-75
2022/01/11 06:57:20;;;;;;;64.90;22.98;;;;;;;;;;8443071;28;20040;-75
2022/01/11 07:01:22;;;;;;;81.47;28.23;;;;;;;;;;8429381;28;20079;-74
2022/01/11 07:05:29;;;;;;;63.47;22.00;;;;;;;;;;8444974;28;20043;-74
2022/01/11 07:09:33;;;;;;;78.15;24.13;;;;;;;;;;8434241;28;20047;-74
2022/01/11 07:13:37;;;;;;;53.47;22.45;;;;;;;;;;8403725;28;20500;-75
2022/01/11 07:17:41;;;;;;;59.70;24.05;;;;;;;;;;8396783;28;20094;-74
2022/01/11 07:21:45;;;;;;;57.38;24.65;;;;;;;;;;8397297;28;20044;-74
2022/01/11 07:25:47;;;;;;;56.58;23.20;;;;;;;;;;8397359;28;20048;-74
2022/01/11 07:29:52;;;;;;;61.70;27.30;;;;;;;;;;8397449;28;20048;-75
2022/01/11 07:33:55;;;;;;;66.20;26.15;;;;;;;;;;8397224;28;20052;-77
2022/01/11 07:37:57;;;;;;;60.22;25.02;;;;;;;;;;8397513;28;20393;-75
2022/01/11 07:42:00;;;;;;;83.78;31.35;;;;;;;;;;8396924;28;20045;-74
2022/01/11 07:46:04;;;;;;;68.50;31.08;;;;;;;;;;8404830;28;20488;-74
2022/01/11 07:50:07;;;;;;;81.97;34.53;;;;;;;;;;8422122;28;20446;-84
2022/01/11 07:54:10;;;;;;;86.93;32.70;;;;;;;;;;8426383;28;20059;-74
2022/01/11 07:58:13;;;;;;;44.88;17.73;;;;;;;;;;8406035;28;20427;-74
2022/01/11 08:02:18;;;;;;;51.53;21.55;;;;;;;;;;8431651;28;20043;-75
2022/01/11 08:06:20;;;;;;;53.53;18.60;;;;;;;;;;8458853;28;20135;-77
2022/01/11 08:10:23;;;;;;;51.72;19.50;;;;;;;;;;8428160;28;20573;-74
2022/01/11 08:14:26;;;;;;;46.60;19.42;;;;;;;;;;8427968;28;20044;-82
2022/01/11 08:18:32;;;;;;;61.30;23.30;;;;;;;;;;8429811;28;20047;-74
2022/01/11 08:22:35;;;;;;;55.13;21.23;;;;;;;;;;8430344;28;20380;-74
2022/01/11 08:26:38;;;;;;;50.50;19.75;;;;;;;;;;8427312;28;20109;-74
2022/01/11 08:30:41;;;;;;;65.18;23.77;;;;;;;;;;8435719;28;20048;-74
2022/01/11 08:34:45;;;;;;;71.93;24.70;;;;;;;;;;8436541;28;20053;-74
2022/01/11 08:38:47;;;;;;;56.15;20.02;;;;;;;;;;8436096;28;20428;-74
2022/01/11 08:42:51;;;;;;;43.72;17.52;;;;;;;;;;8435893;28;20448;-74
2022/01/11 08:46:54;;;;;;;58.95;21.00;;;;;;;;;;8436271;28;20140;-74
2022/01/11 08:50:59;;;;;;;49.70;20.55;;;;;;;;;;8435707;28;20106;-74
2022/01/11 08:55:01;;;;;;;42.85;18.30;;;;;;;;;;8435625;28;20044;-74
2022/01/11 08:59:04;;;;;;;44.17;18.85;;;;;;;;;;8435412;28;20461;-74
2022/01/11 09:03:07;;;;;;;42.03;17.58;;;;;;;;;;8435147;28;20044;-74
2022/01/11 09:07:12;;;;;;;51.70;21.27;;;;;;;;;;8435096;28;20135;-77
2022/01/11 09:11:14;;;;;;;55.88;20.83;;;;;;;;;;8435636;28;20400;-74
2022/01/11 09:15:17;;;;;;;64.68;24.02;;;;;;;;;;8434907;28;20040;-74
2022/01/11 09:19:20;;;;;;;73.15;26.67;;;;;;;;;;8434851;28;20142;-74
2022/01/11 09:23:25;;;;;;;65.93;24.42;;;;;;;;;;8435211;28;20427;-74
2022/01/11 09:27:30;;;;;;;75.90;28.65;;;;;;;;;;8434542;28;20396;-74
2022/01/11 09:31:33;;;;;;;65.03;28.13;;;;;;;;;;8434955;28;20048;-74
2022/01/11 09:35:39;;;;;;;72.90;27.23;;;;;;;;;;8434329;28;20048;-74
2022/01/11 09:39:44;;;;;;;68.97;26.75;;;;;;;;;;8433838;28;20070;-74
2022/01/11 09:43:47;;;;;;;61.47;21.85;;;;;;;;;;8434039;28;20093;-75
2022/01/11 09:47:50;;;;;;;68.68;23.73;;;;;;;;;;8433860;28;20048;-75
2022/01/11 09:51:53;;;;;;;55.80;22.55;;;;;;;;;;8433767;28;20108;-75
2022/01/11 09:55:58;;;;;;;56.75;20.80;;;;;;;;;;8433639;28;20078;-76
2022/01/11 10:00:01;;;;;;;62.60;22.80;;;;;;;;;;8433470;28;20113;-74
2022/01/11 10:04:06;;;;;;;56.17;24.25;;;;;;;;;;8433932;28;20044;-73
2022/01/11 10:08:23;;;;;;;48.97;20.33;;;;;;;;;;8433173;28;20052;-74
2022/01/11 10:12:34;;;;;;;48.67;19.80;;;;;;;;;;8433162;28;20040;-74
2022/01/11 10:16:37;;;;;;;48.15;19.95;;;;;;;;;;8433007;28;20051;-74
2022/01/11 10:20:39;;;;;;;52.97;21.85;;;;;;;;;;8432829;28;20036;-74
2022/01/11 10:24:45;;;;;;;43.45;18.02;;;;;;;;;;8433312;28;20399;-75
2022/01/11 10:28:50;;;;;;;55.78;21.38;;;;;;;;;;8433119;28;20052;-74
2022/01/11 10:32:54;;;;;;;40.78;18.45;;;;;;;;;;8433051;28;20539;-84
2022/01/11 10:36:58;;;;;;;51.97;22.90;;;;;;;;;;8432531;28;20055;-73
2022/01/11 10:41:01;;;;;;;46.55;18.88;;;;;;;;;;8432326;28;20051;-74
2022/01/11 10:45:08;;;;;;;49.50;21.60;;;;;;;;;;8432827;28;20044;-75
2022/01/11 10:49:11;;;;;;;45.13;19.35;;;;;;;;;;8432187;28;20420;-82
2022/01/11 10:53:17;;;;;;;50.55;19.15;;;;;;;;;;8431555;28;20059;-74
2022/01/11 10:57:23;;;;;;;60.97;21.83;;;;;;;;;;8431573;28;20071;-74
2022/01/11 11:01:35;;;;;;;59.22;23.45;;;;;;;;;;8412866;28;20044;-74
2022/01/11 11:05:40;;;;;;;53.97;22.63;;;;;;;;;;8397688;28;20127;-75
2022/01/11 11:09:47;;;;;;;45.92;17.85;;;;;;;;;;8397387;28;20044;-74
2022/01/11 11:13:53;;;;;;;52.20;21.63;;;;;;;;;;8397116;28;20078;-75
2022/01/11 11:17:57;;;;;;;51.45;21.50;;;;;;;;;;8397832;28;20412;-75
2022/01/11 11:22:01;;;;;;;63.30;24.95;;;;;;;;;;8397175;28;20068;-75
2022/01/11 11:26:05;;;;;;;54.75;22.08;;;;;;;;;;8397540;28;20044;-76
2022/01/11 11:30:11;;;;;;;63.03;23.48;;;;;;;;;;8397198;28;20048;-75
2022/01/11 11:34:17;;;;;;;55.42;20.80;;;;;;;;;;8400048;28;20455;-75
2022/01/11 11:38:26;;;;;;;63.63;23.52;;;;;;;;;;8430337;28;20062;-75
2022/01/11 11:42:33;;;;;;;53.20;20.77;;;;;;;;;;8423532;28;20105;-75
2022/01/11 11:46:44;;;;;;;50.75;20.42;;;;;;;;;;8399303;28;20094;-74
2022/01/11 11:50:52;;;;;;;55.85;23.17;;;;;;;;;;8421784;28;20101;-75
2022/01/11 11:54:56;;;;;;;52.47;24.05;;;;;;;;;;8430335;28;20452;-75
2022/01/11 11:58:59;;;;;;;53.53;23.38;;;;;;;;;;8418076;28;20059;-74
2022/01/11 12:03:05;;;;;;;80.60;37.25;;;;;;;;;;8409437;28;20071;-74
2022/01/11 12:07:37;;;;;;;52.90;20.15;;;;;;;;;;8413055;28;20143;-74
2022/01/11 12:11:42;;;;;;;51.03;22.25;;;;;;;;;;8407467;28;20045;-74
2022/01/11 12:15:46;;;;;;;69.90;28.08;;;;;;;;;;8419011;28;20048;-72
2022/01/11 12:19:49;;;;;;;63.53;23.58;;;;;;;;;;8419339;28;20487;-72
2022/01/11 12:23:55;;;;;;;57.15;24.45;;;;;;;;;;8411806;28;20051;-72
2022/01/11 12:28:02;;;;;;;56.65;24.65;;;;;;;;;;8413849;28;20131;-72
2022/01/11 12:32:08;;;;;;;129.30;44.25;;;;;;;;;;8418253;28;20048;-72
2022/01/11 12:36:12;;;;;;;62.03;22.83;;;;;;;;;;8419151;28;20476;-72
2022/01/11 12:40:29;;;;;;;104.15;35.42;;;;;;;;;;8413142;28;20048;-73
2022/01/11 12:49:06;;;;;;;66.70;26.95;;;;;;;;;;8405577;28;20461;-74
2022/01/11 12:53:10;;;;;;;131.63;40.67;;;;;;;;;;8406615;28;20062;-73
2022/01/11 12:57:23;;;;;;;72.53;27.65;;;;;;;;;;8417454;28;20060;-74
2022/01/11 13:01:27;;;;;;;74.75;26.40;;;;;;;;;;8416931;28;20545;-73
2022/01/11 13:05:30;;;;;;;68.13;25.48;;;;;;;;;;8410099;28;20043;-74
2022/01/11 13:09:34;;;;;;;68.22;25.00;;;;;;;;;;8415057;28;20049;-73
2022/01/11 13:13:46;;;;;;;56.42;22.55;;;;;;;;;;8403560;28;20056;-74
2022/01/11 13:18:03;;;;;;;71.75;27.83;;;;;;;;;;8410001;28;20052;-73
2022/01/11 13:22:08;;;;;;;68.45;25.98;;;;;;;;;;8434881;28;20062;-73
2022/01/11 13:26:13;;;;;;;103.10;35.72;;;;;;;;;;8433408;28;20546;-73
2022/01/11 13:30:34;;;;;;;87.75;31.00;;;;;;;;;;8400693;28;20064;-74
2022/01/11 13:34:38;;;;;;;70.03;27.45;;;;;;;;;;8388225;28;20056;-73
2022/01/11 13:38:44;;;;;;;58.83;22.50;;;;;;;;;;8400390;28;20044;-73
2022/01/11 13:43:00;;;;;;;48.30;19.92;;;;;;;;;;8402968;28;20037;-74
2022/01/11 13:47:08;;;;;;;68.35;27.23;;;;;;;;;;8426774;28;20072;-74
2022/01/11 13:51:12;;;;;;;57.60;22.30;;;;;;;;;;8421816;28;20044;-74
2022/01/11 13:55:18;;;;;;;72.03;28.40;;;;;;;;;;8433162;28;20189;-74
2022/01/11 13:59:27;;;;;;;60.50;23.52;;;;;;;;;;8426585;28;20056;-76
2022/01/11 14:03:34;;;;;;;53.08;19.90;;;;;;;;;;8402465;28;20073;-73
2022/01/11 14:07:40;;;;;;;38.67;15.90;;;;;;;;;;8399403;28;20048;-74
2022/01/11 14:12:06;;;;;;;75.95;24.65;;;;;;;;;;8399376;28;20049;-73
2022/01/11 14:16:22;;;;;;;269.63;78.30;;;;;;;;;;8399352;28;20071;-73
2022/01/11 14:20:28;;;;;;;286.95;85.45;;;;;;;;;;8405793;28;20529;-73
2022/01/11 14:24:50;;;;;;;259.60;77.68;;;;;;;;;;8403258;28;20055;-73
2022/01/11 14:28:55;;;;;;;67.55;25.40;;;;;;;;;;8399311;28;20121;-74
2022/01/11 14:33:01;;;;;;;105.40;40.70;;;;;;;;;;8398976;28;20052;-74
2022/01/11 14:37:20;;;;;;;121.13;46.25;;;;;;;;;;8398640;28;20106;-75
2022/01/11 14:41:29;;;;;;;70.85;26.95;;;;;;;;;;8398528;28;20048;-73
2022/01/11 14:45:39;;;;;;;50.10;19.02;;;;;;;;;;8398462;28;20596;-77
2022/01/11 14:49:43;;;;;;;82.50;32.42;;;;;;;;;;8398082;28;20052;-73
2022/01/11 14:53:56;;;;;;;65.72;27.17;;;;;;;;;;8398279;28;20053;-74
2022/01/11 14:58:05;;;;;;;57.22;19.80;;;;;;;;;;8409242;28;20056;-75
2022/01/11 15:02:21;;;;;;;54.28;19.92;;;;;;;;;;8400254;28;20045;-74
2022/01/11 15:06:32;;;;;;;68.07;28.15;;;;;;;;;;8397675;28;20498;-73
2022/01/11 15:10:44;;;;;;;54.65;21.60;;;;;;;;;;8397437;28;20055;-73
2022/01/11 15:14:53;;;;;;;58.80;23.02;;;;;;;;;;8396799;28;20036;-74
2022/01/11 15:19:06;;;;;;;35.78;16.27;;;;;;;;;;8395971;28;20055;-73
2022/01/11 15:23:15;;;;;;;33.00;15.43;;;;;;;;;;8397939;28;20048;-74
2022/01/11 15:27:23;;;;;;;58.10;20.25;;;;;;;;;;8395850;28;20044;-73
2022/01/11 15:31:28;;;;;;;47.45;17.77;;;;;;;;;;8408385;28;20051;-78
2022/01/11 15:35:36;;;;;;;48.17;16.27;;;;;;;;;;8407925;28;20051;-74
2022/01/11 15:39:40;;;;;;;43.40;17.63;;;;;;;;;;8396915;28;20048;-73
2022/01/11 15:43:46;;;;;;;45.45;17.40;;;;;;;;;;8397049;28;20044;-73
2022/01/11 15:47:51;;;;;;;44.25;17.73;;;;;;;;;;8406404;28;20563;-74
2022/01/11 15:52:03;;;;;;;42.45;14.55;;;;;;;;;;8396360;28;20149;-74
2022/01/11 15:56:07;;;;;;;55.40;17.80;;;;;;;;;;8396570;28;20041;-73
2022/01/11 16:00:15;;;;;;;54.63;20.15;;;;;;;;;;8396264;28;20056;-75
2022/01/11 16:04:21;;;;;;;55.47;18.35;;;;;;;;;;8395856;28;20057;-74
2022/01/11 16:08:28;;;;;;;252.40;53.80;;;;;;;;;;8401099;28;20044;-74
2022/01/11 16:12:36;;;;;;;50.00;18.98;;;;;;;;;;8428623;28;20051;-74
2022/01/11 16:16:56;;;;;;;56.30;18.90;;;;;;;;;;8428468;28;20032;-74
2022/01/11 16:21:05;;;;;;;75.13;23.17;;;;;;;;;;8396789;28;20131;-74
2022/01/11 16:25:15;;;;;;;60.30;19.02;;;;;;;;;;8395232;28;20068;-74
2022/01/11 16:29:19;;;;;;;49.25;18.02;;;;;;;;;;8396288;28;20464;-73
2022/01/11 16:33:28;;;;;;;36.92;15.27;;;;;;;;;;8399334;28;20044;-74
2022/01/11 16:37:34;;;;;;;55.90;20.35;;;;;;;;;;8426052;28;20082;-74
2022/01/11 16:46:29;;;;;;;42.58;16.45;;;;;;;;;;8428549;28;20051;-75
2022/01/11 16:50:49;;;;;;;56.00;20.08;;;;;;;;;;8414196;28;20044;-74
2022/01/11 16:55:18;;;;;;;43.10;16.83;;;;;;;;;;8401723;28;20404;-74
2022/01/11 17:00:07;;;;;;;36.05;15.07;;;;;;;;;;8401140;28;20496;-73
2022/01/11 17:04:34;;;;;;;54.25;19.52;;;;;;;;;;8408832;28;20131;-74
2022/01/11 17:09:17;;;;;;;45.20;16.38;;;;;;;;;;8405471;28;20055;-74
2022/01/11 17:18:34;;;;;;;60.53;23.40;;;;;;;;;;8409752;28;20113;-74
2022/01/11 17:22:52;;;;;;;91.35;27.67;;;;;;;;;;8401170;28;20040;-74
2022/01/11 17:27:26;;;;;;;169.30;49.75;;;;;;;;;;8412369;28;20049;-74
2022/01/11 17:32:05;;;;;;;62.25;22.42;;;;;;;;;;8400154;28;20083;-73
2022/01/11 17:36:26;;;;;;;109.53;32.95;;;;;;;;;;8407013;28;20043;-74
2022/01/11 17:40:46;;;;;;;164.75;44.42;;;;;;;;;;8428858;28;20108;-74
2022/01/11 17:45:47;;;;;;;58.97;21.40;;;;;;;;;;8433503;28;20040;-74
2022/01/11 17:50:12;;;;;;;916.85;409.67;;;;;;;;;;8410553;28;20051;-74
2022/01/11 17:54:17;;;;;;;1673.82;652.95;;;;;;;;;;8414893;28;20048;-74
2022/01/11 17:58:19;;;;;;;42.28;18.50;;;;;;;;;;8407040;28;20052;-73
2022/01/11 18:02:24;;;;;;;35.67;12.65;;;;;;;;;;8402510;28;20519;-73
2022/01/11 18:06:27;;;;;;;36.30;13.80;;;;;;;;;;8407398;28;20464;-73
2022/01/11 18:10:31;;;;;;;108.28;34.53;;;;;;;;;;8399847;28;20057;-73
2022/01/11 18:14:34;;;;;;;98.40;25.08;;;;;;;;;;8410555;28;20128;-74
2022/01/11 18:18:38;;;;;;;97.38;27.33;;;;;;;;;;8406669;28;20044;-73
2022/01/11 18:22:42;;;;;;;115.93;36.33;;;;;;;;;;8404763;28;20044;-74
2022/01/11 18:26:45;;;;;;;30.58;12.73;;;;;;;;;;8398499;28;20045;-73
2022/01/11 18:30:50;;;;;;;28.15;11.82;;;;;;;;;;8398083;28;20110;-74
2022/01/11 18:35:26;;;;;;;36.05;14.05;;;;;;;;;;8405561;28;20044;-75
2022/01/11 18:40:04;;;;;;;34.13;13.02;;;;;;;;;;8398865;28;20503;-74
2022/01/11 18:44:47;;;;;;;46.13;15.65;;;;;;;;;;8398297;28;20055;-74
2022/01/11 18:54:40;;;;;;;29.42;12.40;;;;;;;;;;8397286;28;20047;-74
2022/01/11 18:59:25;;;;;;;62.22;20.08;;;;;;;;;;8394652;28;20056;-74
2022/01/11 19:03:40;;;;;;;129.60;31.35;;;;;;;;;;8420701;28;20471;-74
2022/01/11 19:07:49;;;;;;;64.03;21.50;;;;;;;;;;8415525;28;20044;-74
2022/01/11 19:11:59;;;;;;;63.08;20.13;;;;;;;;;;8402304;28;20472;-74
2022/01/11 19:16:21;;;;;;;43.97;16.45;;;;;;;;;;8396681;28;20044;-74
2022/01/11 19:20:28;;;;;;;37.35;16.65;;;;;;;;;;8395757;28;20384;-73
2022/01/11 19:24:36;;;;;;;50.80;24.00;;;;;;;;;;8413432;28;20134;-73
2022/01/11 19:28:41;;;;;;;55.85;19.65;;;;;;;;;;8430635;28;20078;-73
2022/01/11 19:32:48;;;;;;;49.25;21.13;;;;;;;;;;8412291;28;20064;-74
2022/01/11 19:36:57;;;;;;;40.95;18.27;;;;;;;;;;8430520;28;20415;-74
2022/01/11 19:41:08;;;;;;;47.30;17.13;;;;;;;;;;8430240;28;20048;-74
2022/01/11 19:45:21;;;;;;;49.25;15.85;;;;;;;;;;8417489;28;20059;-80
2022/01/11 19:49:27;;;;;;;70.35;25.13;;;;;;;;;;8420075;28;20056;-76
2022/01/11 19:53:31;;;;;;;110.70;37.28;;;;;;;;;;8402093;28;20048;-74
2022/01/11 19:57:40;;;;;;;44.10;16.83;;;;;;;;;;8411569;28;20048;-80
2022/01/11 20:01:50;;;;;;;50.90;19.77;;;;;;;;;;8402553;28;20036;-75
2022/01/11 20:06:06;;;;;;;45.00;19.98;;;;;;;;;;8416006;28;20044;-75
2022/01/11 20:10:11;;;;;;;43.35;16.50;;;;;;;;;;8422634;28;20051;-74
2022/01/11 20:14:17;;;;;;;276.23;61.05;;;;;;;;;;8425127;28;20044;-74
2022/01/11 20:18:23;;;;;;;199.27;55.65;;;;;;;;;;8427788;28;20505;-79
2022/01/11 20:31:07;;;;;;;296.10;77.95;;;;;;;;;;8417617;28;20403;-78
2022/01/11 20:35:12;;;;;;;123.97;37.38;;;;;;;;;;8431564;28;20048;-74
2022/01/11 20:39:15;;;;;;;314.42;98.22;;;;;;;;;;8431652;28;20051;-77
2022/01/11 20:43:17;;;;;;;329.27;88.72;;;;;;;;;;8428414;28;20055;-76
2022/01/11 20:47:22;;;;;;;40.60;14.77;;;;;;;;;;8432487;28;20555;-73
2022/01/11 20:51:29;;;;;;;175.80;46.38;;;;;;;;;;8429124;28;20090;-73
2022/01/11 20:55:33;;;;;;;36.25;13.52;;;;;;;;;;8402116;28;20548;-74
2022/01/11 20:59:38;;;;;;;28.75;12.15;;;;;;;;;;8413061;28;20054;-73
2022/01/11 21:03:44;;;;;;;43.00;14.23;;;;;;;;;;8415480;28;20376;-73
2022/01/11 21:07:48;;;;;;;55.28;14.75;;;;;;;;;;8428995;28;20047;-73
2022/01/11 21:11:51;;;;;;;173.35;48.88;;;;;;;;;;8405705;28;20067;-73
2022/01/11 21:20:25;;;;;;;128.48;33.17;;;;;;;;;;8413084;28;20405;-72
2022/01/11 21:24:29;;;;;;;72.28;22.33;;;;;;;;;;8413066;28;20553;-72
2022/01/11 21:28:33;;;;;;;29.77;13.27;;;;;;;;;;8418437;28;20041;-72
2022/01/11 21:32:37;;;;;;;169.20;42.45;;;;;;;;;;8419095;28;20049;-72
2022/01/11 21:36:43;;;;;;;24.65;9.95;;;;;;;;;;8415354;28;20052;-72
2022/01/11 21:40:47;;;;;;;28.13;11.88;;;;;;;;;;8413402;28;20046;-73
2022/01/11 21:44:54;;;;;;;26.30;10.18;;;;;;;;;;8413442;28;20094;-72
2022/01/11 21:48:56;;;;;;;25.17;10.75;;;;;;;;;;8369768;28;20041;-73
2022/01/11 21:53:01;;;;;;;23.13;10.75;;;;;;;;;;8415875;28;20446;-72
2022/01/11 21:57:06;;;;;;;36.55;12.77;;;;;;;;;;8412414;28;20395;-72
2022/01/11 22:01:09;;;;;;;47.20;17.45;;;;;;;;;;8412463;28;20079;-72
2022/01/11 22:05:14;;;;;;;36.40;14.57;;;;;;;;;;8418708;28;20052;-72
2022/01/11 22:09:19;;;;;;;36.15;14.40;;;;;;;;;;8417128;28;20056;-73
2022/01/11 22:13:30;;;;;;;45.13;16.10;;;;;;;;;;8413836;28;20412;-73
2022/01/11 22:17:39;;;;;;;36.13;12.55;;;;;;;;;;8411581;28;20080;-72
2022/01/11 22:21:42;;;;;;;41.20;14.80;;;;;;;;;;8412695;28;20045;-74
2022/01/11 22:25:47;;;;;;;33.13;12.05;;;;;;;;;;8420273;28;20040;-73
2022/01/11 22:29:49;;;;;;;60.70;21.30;;;;;;;;;;8403909;28;20416;-73
2022/01/11 22:33:53;;;;;;;61.63;18.75;;;;;;;;;;8388946;28;20049;-73
2022/01/11 22:37:56;;;;;;;37.20;13.40;;;;;;;;;;8388633;28;20044;-76
2022/01/11 22:42:00;;;;;;;49.38;16.40;;;;;;;;;;8396224;28;20090;-74
2022/01/11 22:46:03;;;;;;;34.10;13.45;;;;;;;;;;8393501;28;20048;-75
2022/01/11 22:50:07;;;;;;;31.42;11.07;;;;;;;;;;8389263;28;20680;-72
2022/01/11 22:54:11;;;;;;;34.67;14.88;;;;;;;;;;8388766;28;20412;-75
2022/01/11 22:58:16;;;;;;;28.42;11.60;;;;;;;;;;8392191;28;20048;-72
2022/01/11 23:02:19;;;;;;;34.90;15.88;;;;;;;;;;8394471;28;20051;-73
2022/01/11 23:06:21;;;;;;;39.25;14.48;;;;;;;;;;8372216;28;20072;-73
2022/01/11 23:10:26;;;;;;;38.08;14.45;;;;;;;;;;8382393;28;20400;-73
2022/01/11 23:18:50;;;;;;;34.83;12.68;;;;;;;;;;8348803;28;20105;-72
2022/01/11 23:22:52;;;;;;;33.92;13.70;;;;;;;;;;8392500;28;20052;-73
2022/01/11 23:26:55;;;;;;;37.20;13.38;;;;;;;;;;8388083;28;20045;-73
2022/01/11 23:31:00;;;;;;;32.92;12.50;;;;;;;;;;8387592;28;20048;-73
2022/01/11 23:35:03;;;;;;;37.22;14.60;;;;;;;;;;8391207;28;20045;-73
2022/01/11 23:39:27;;;;;;;34.22;15.88;;;;;;;;;;8392856;28;20048;-73
2022/01/11 23:43:35;;;;;;;34.40;14.05;;;;;;;;;;8371617;28;20037;-72
2022/01/11 23:47:41;;;;;;;31.98;11.98;;;;;;;;;;8384156;28;20116;-72
2022/01/11 23:51:44;;;;;;;34.53;12.52;;;;;;;;;;8386450;28;20048;-73
2022/01/11 23:55:46;;;;;;;33.33;13.27;;;;;;;;;;8393687;28;20041;-75
2022/01/11 23:59:49;;;;;;;34.17;14.13;;;;;;;;;;8391307;28;20044;-73
